Startpagina
METAR-TAF:

METAR-TAF

Vliegvelden :

Vlieland, Nederland

breedte: 53-15N, lengte: 004-55E, hoogte: 11 m

Actueel weer

Dit bericht is 7 minuten geleden gemaakt, om 05:55 UTC
Wind 15 kt uit het zuidwesten
Temperatuur 15°C
Vochtigheid 100%
Druk 1016 hPa
Zicht: 3500 m
Verspreide wolken op 100 ft
Geheel bewolkt op 300 ft
nevel

METAR: EHVL 240555Z AUTO 22015KT 3500 BR SCT001 OVC003 15/15 Q1016 REDZ RED

Tijdstip: 08:02 (06:02 UTC)


TAF: ontbreekt

Waarnemingen en weersverwachtingen van meer dan 4000 vliegvelden (METAR en TAF).

De beschikbare stations zijn de gele en rode punten op de kaart.

Ga met uw muis naar het station om de naam te zien.

Klik dan om waarnemingen en weersverwachtingen te zien.

kaart wijzigen: klik op de groene knoppen met een zwart kruis om in te zoomen, op de groene knop met een streepje om uit te zoomen of op de groene pijlen voor aangrenzende kaarten.


METAR-TAF: